Wayne, NE

11:11 PM CDT on August 22, 2014 (GMT -0500)
Courthouse Hill | Change Station
CLOSE
Current Station
Personal Weather Station
Location: Wayne, NE
Elevation: 1512 ft
Nearby Weather Stations

Elev 1512 ft 42.23 °N, 97.02 °W | Updated 16 seconds ago

Thunderstorm
Thunderstorm
73.2 °F
Feels Like 73.2 °F
N
0.0
Wind Variable Wind from SE
Gusts 0.0 mph

Today
High -- | Low -- °F
--% Chance of Precip.
Yesterday
High -- | Low -- °F
Precip. -- in
6:42 AM 8:18 PM
Waning Crescent, 5% visible
Pressure 29.97 in
Visibility -9999.0 miles
Clouds
Dew Point 73 °F
Humidity 99%
Rainfall 0.72 in
Snow Depth Not available.
UV Not available.
Pollen 9.60 out of 12
Air Quality Not available.
Flu Activity Not available.
METAR KLCG 230355Z AUTO 32003KT VCTS 23/23 A2997 RMK AO2 LTG DSNT W T02310225

More Conditions Fewer Conditions

Pressure 29.97 in
Visibility -9999.0 miles
Clouds
Dew Point 73 °F
Humidity 99%
Rainfall 0.72 in
Snow Depth Not available.
UV Not available.
Pollen 9.60 out of 12
Air Quality Not available.
Flu Activity Not available.
METAR KLCG 230355Z AUTO 32003KT VCTS 23/23 A2997 RMK AO2 LTG DSNT W T02310225

More Conditions Fewer Conditions

10-Day Weather Forecast

Almanac

Astronomy

Aug. 22, 2014 Rise Set
Actual Time 6:42 AM CDT 8:18 PM CDT
Civil Twilight 6:13 AM CDT 8:47 PM CDT
Nautical Twilight 5:37 AM CDT 9:23 PM CDT
Astronomical Twilight 4:59 AM CDT 10:01 PM CDT
Moon 4:05 AM CDT (8/22) 6:28 PM CDT (8/22)
Length of Visible Light 14h 34m
Length of Day
13h 35m
Tomorrow will be 2m 38s shorter.
Waning Crescent, 5% of the Moon is Illuminated
Aug 23
Waning Crescent
Aug 25
New
Sep 2
First Quarter
Sep 8
Full
Sep 15
Last Quarter

Today's Extremes

State Highs State Lows

Community

WunderPhotos

Upload Photos

1,746,358 photos uploaded!

WunderBlogs® & News

Nearby

Snow Depth

Station Depth Elevation
No new snow has been reported.

Earthquake Activity

City Distance Mag. Time & Date
No recent earthquake activity has been reported nearby.
Minimum magnitude displayed is 2.5.

Coastal Water Temperatures

Place Temperature
No Stations Reporting

Nearby Weather Stations